sensor_id;sensor_type;location;lat;lon;timestamp;P1;durP1;ratioP1;P2;durP2;ratioP2
505;SDS011;551;48.524;9.056;2022-09-03T00:01:20;6.73;;;2.90;;
505;SDS011;551;48.524;9.056;2022-09-03T00:03:54;6.67;;;4.20;;
505;SDS011;551;48.524;9.056;2022-09-03T00:06:25;3.60;;;3.30;;
505;SDS011;551;48.524;9.056;2022-09-03T00:08:54;4.27;;;3.80;;
505;SDS011;551;48.524;9.056;2022-09-03T00:11:25;4.47;;;3.40;;
505;SDS011;551;48.524;9.056;2022-09-03T00:16:21;3.27;;;3.07;;
505;SDS011;551;48.524;9.056;2022-09-03T00:18:49;5.50;;;3.27;;
505;SDS011;551;48.524;9.056;2022-09-03T00:24:02;4.00;;;3.10;;
505;SDS011;551;48.524;9.056;2022-09-03T00:26:29;4.97;;;3.60;;
505;SDS011;551;48.524;9.056;2022-09-03T00:31:29;3.37;;;3.07;;
505;SDS011;551;48.524;9.056;2022-09-03T00:33:59;4.20;;;3.60;;
505;SDS011;551;48.524;9.056;2022-09-03T00:36:30;3.97;;;3.30;;
505;SDS011;551;48.524;9.056;2022-09-03T00:38:58;3.90;;;2.90;;
505;SDS011;551;48.524;9.056;2022-09-03T00:46:32;3.77;;;3.10;;
505;SDS011;551;48.524;9.056;2022-09-03T01:02:36;6.97;;;3.40;;
505;SDS011;551;48.524;9.056;2022-09-03T01:05:09;3.33;;;3.03;;
505;SDS011;551;48.524;9.056;2022-09-03T01:10:14;4.77;;;3.80;;
505;SDS011;551;48.524;9.056;2022-09-03T01:12:46;3.20;;;3.00;;
505;SDS011;551;48.524;9.056;2022-09-03T01:15:33;4.53;;;3.27;;
505;SDS011;551;48.524;9.056;2022-09-03T01:20:34;3.80;;;3.50;;
505;SDS011;551;48.524;9.056;2022-09-03T01:23:20;4.00;;;3.67;;
505;SDS011;551;48.524;9.056;2022-09-03T01:25:52;4.43;;;3.10;;
505;SDS011;551;48.524;9.056;2022-09-03T01:28:37;3.43;;;3.13;;
505;SDS011;551;48.524;9.056;2022-09-03T01:34:12;3.30;;;3.00;;
505;SDS011;551;48.524;9.056;2022-09-03T01:39:42;2.97;;;2.67;;
505;SDS011;551;48.524;9.056;2022-09-03T01:42:09;5.23;;;2.93;;
505;SDS011;551;48.524;9.056;2022-09-03T01:47:35;3.17;;;2.97;;
505;SDS011;551;48.524;9.056;2022-09-03T01:50:07;3.30;;;3.03;;
505;SDS011;551;48.524;9.056;2022-09-03T01:55:24;3.70;;;3.40;;
505;SDS011;551;48.524;9.056;2022-09-03T01:57:57;3.40;;;3.10;;
505;SDS011;551;48.524;9.056;2022-09-03T02:00:24;3.47;;;3.17;;
505;SDS011;551;48.524;9.056;2022-09-03T02:02:51;3.33;;;3.03;;
505;SDS011;551;48.524;9.056;2022-09-03T02:05:21;3.10;;;2.80;;
505;SDS011;551;48.524;9.056;2022-09-03T02:10:46;5.50;;;3.07;;
505;SDS011;551;48.524;9.056;2022-09-03T02:13:17;6.60;;;3.60;;
505;SDS011;551;48.524;9.056;2022-09-03T02:15:45;4.87;;;3.70;;
505;SDS011;551;48.524;9.056;2022-09-03T02:18:17;3.87;;;3.37;;
505;SDS011;551;48.524;9.056;2022-09-03T02:20:45;5.47;;;3.57;;
505;SDS011;551;48.524;9.056;2022-09-03T02:23:12;3.20;;;2.90;;
505;SDS011;551;48.524;9.056;2022-09-03T02:25:39;3.47;;;3.27;;
505;SDS011;551;48.524;9.056;2022-09-03T02:28:06;3.10;;;2.90;;
505;SDS011;551;48.524;9.056;2022-09-03T02:30:33;3.60;;;3.30;;
505;SDS011;551;48.524;9.056;2022-09-03T02:32:59;5.93;;;3.17;;
505;SDS011;551;48.524;9.056;2022-09-03T02:35:26;4.30;;;4.00;;
505;SDS011;551;48.524;9.056;2022-09-03T02:37:52;3.33;;;3.03;;
505;SDS011;551;48.524;9.056;2022-09-03T02:40:18;3.43;;;3.13;;
505;SDS011;551;48.524;9.056;2022-09-03T02:42:44;3.13;;;2.73;;
505;SDS011;551;48.524;9.056;2022-09-03T02:45:19;3.77;;;3.47;;
505;SDS011;551;48.524;9.056;2022-09-03T02:47:49;3.10;;;2.90;;
505;SDS011;551;48.524;9.056;2022-09-03T02:50:16;3.83;;;3.47;;
505;SDS011;551;48.524;9.056;2022-09-03T02:52:43;3.43;;;3.13;;
505;SDS011;551;48.524;9.056;2022-09-03T02:55:09;3.43;;;3.13;;
505;SDS011;551;48.524;9.056;2022-09-03T02:57:35;3.30;;;3.10;;
505;SDS011;551;48.524;9.056;2022-09-03T03:00:01;4.07;;;2.80;;
505;SDS011;551;48.524;9.056;2022-09-03T03:02:26;5.47;;;3.33;;
505;SDS011;551;48.524;9.056;2022-09-03T03:04:52;3.43;;;3.23;;
505;SDS011;551;48.524;9.056;2022-09-03T03:07:19;3.00;;;2.80;;
505;SDS011;551;48.524;9.056;2022-09-03T03:09:45;4.77;;;3.37;;
505;SDS011;551;48.524;9.056;2022-09-03T03:12:11;3.70;;;3.40;;
505;SDS011;551;48.524;9.056;2022-09-03T03:14:37;3.63;;;3.37;;
505;SDS011;551;48.524;9.056;2022-09-03T03:17:03;3.70;;;3.40;;
505;SDS011;551;48.524;9.056;2022-09-03T03:19:29;4.03;;;3.20;;
505;SDS011;551;48.524;9.056;2022-09-03T03:21:55;4.60;;;3.37;;
505;SDS011;551;48.524;9.056;2022-09-03T03:24:21;3.33;;;3.03;;
505;SDS011;551;48.524;9.056;2022-09-03T03:26:47;4.03;;;3.67;;
505;SDS011;551;48.524;9.056;2022-09-03T03:29:13;4.63;;;3.30;;
505;SDS011;551;48.524;9.056;2022-09-03T03:31:41;3.30;;;3.10;;
505;SDS011;551;48.524;9.056;2022-09-03T03:34:07;3.87;;;3.50;;
505;SDS011;551;48.524;9.056;2022-09-03T03:36:33;4.07;;;3.23;;
505;SDS011;551;48.524;9.056;2022-09-03T03:39:00;3.00;;;2.80;;
505;SDS011;551;48.524;9.056;2022-09-03T03:41:34;3.67;;;2.97;;
505;SDS011;551;48.524;9.056;2022-09-03T03:44:01;3.50;;;3.20;;
505;SDS011;551;48.524;9.056;2022-09-03T03:46:28;4.13;;;3.20;;
505;SDS011;551;48.524;9.056;2022-09-03T03:48:54;3.43;;;3.13;;
505;SDS011;551;48.524;9.056;2022-09-03T03:51:20;5.67;;;3.70;;
505;SDS011;551;48.524;9.056;2022-09-03T03:53:47;3.00;;;2.80;;
505;SDS011;551;48.524;9.056;2022-09-03T03:56:14;3.57;;;3.37;;
505;SDS011;551;48.524;9.056;2022-09-03T03:58:40;3.93;;;3.60;;
505;SDS011;551;48.524;9.056;2022-09-03T04:01:09;3.87;;;3.67;;
505;SDS011;551;48.524;9.056;2022-09-03T04:03:35;2.97;;;2.77;;
505;SDS011;551;48.524;9.056;2022-09-03T04:06:02;3.90;;;3.70;;
505;SDS011;551;48.524;9.056;2022-09-03T04:08:29;6.70;;;3.97;;
505;SDS011;551;48.524;9.056;2022-09-03T04:10:59;3.87;;;3.57;;
505;SDS011;551;48.524;9.056;2022-09-03T04:13:28;3.30;;;3.10;;
505;SDS011;551;48.524;9.056;2022-09-03T04:16:02;3.40;;;3.10;;
505;SDS011;551;48.524;9.056;2022-09-03T04:18:28;3.87;;;3.57;;
505;SDS011;551;48.524;9.056;2022-09-03T04:20:58;8.70;;;3.60;;
505;SDS011;551;48.524;9.056;2022-09-03T04:23:24;3.80;;;3.57;;
505;SDS011;551;48.524;9.056;2022-09-03T04:25:53;4.10;;;3.80;;
505;SDS011;551;48.524;9.056;2022-09-03T04:28:19;4.30;;;3.90;;
505;SDS011;551;48.524;9.056;2022-09-03T04:30:45;3.87;;;3.57;;
505;SDS011;551;48.524;9.056;2022-09-03T04:33:11;3.77;;;3.47;;
505;SDS011;551;48.524;9.056;2022-09-03T04:35:37;3.90;;;3.47;;
505;SDS011;551;48.524;9.056;2022-09-03T04:38:04;4.30;;;3.90;;
505;SDS011;551;48.524;9.056;2022-09-03T04:40:31;4.40;;;4.10;;
505;SDS011;551;48.524;9.056;2022-09-03T04:42:57;4.90;;;4.13;;
505;SDS011;551;48.524;9.056;2022-09-03T04:45:23;5.57;;;3.60;;
505;SDS011;551;48.524;9.056;2022-09-03T04:47:56;8.27;;;4.00;;
505;SDS011;551;48.524;9.056;2022-09-03T04:50:22;3.73;;;3.53;;
505;SDS011;551;48.524;9.056;2022-09-03T04:52:48;5.43;;;3.90;;
505;SDS011;551;48.524;9.056;2022-09-03T04:55:14;6.23;;;4.27;;
505;SDS011;551;48.524;9.056;2022-09-03T04:57:40;4.13;;;3.57;;
505;SDS011;551;48.524;9.056;2022-09-03T05:00:07;6.50;;;4.23;;
505;SDS011;551;48.524;9.056;2022-09-03T05:02:35;6.93;;;4.03;;
505;SDS011;551;48.524;9.056;2022-09-03T05:05:01;4.13;;;3.80;;
505;SDS011;551;48.524;9.056;2022-09-03T05:07:27;4.10;;;3.80;;
505;SDS011;551;48.524;9.056;2022-09-03T05:10:02;3.93;;;3.50;;
505;SDS011;551;48.524;9.056;2022-09-03T05:12:29;3.73;;;3.43;;
505;SDS011;551;48.524;9.056;2022-09-03T05:14:57;6.90;;;3.93;;
505;SDS011;551;48.524;9.056;2022-09-03T05:17:24;4.83;;;4.00;;
505;SDS011;551;48.524;9.056;2022-09-03T05:19:49;3.83;;;3.53;;
505;SDS011;551;48.524;9.056;2022-09-03T05:22:15;7.60;;;3.27;;
505;SDS011;551;48.524;9.056;2022-09-03T05:24:45;5.10;;;3.40;;
505;SDS011;551;48.524;9.056;2022-09-03T05:27:12;4.60;;;3.40;;
505;SDS011;551;48.524;9.056;2022-09-03T05:29:40;11.73;;;3.60;;
505;SDS011;551;48.524;9.056;2022-09-03T05:32:06;3.30;;;3.10;;
505;SDS011;551;48.524;9.056;2022-09-03T05:34:32;4.37;;;3.97;;
505;SDS011;551;48.524;9.056;2022-09-03T05:36:58;3.30;;;3.10;;
505;SDS011;551;48.524;9.056;2022-09-03T05:39:24;4.90;;;3.73;;
505;SDS011;551;48.524;9.056;2022-09-03T05:41:50;5.80;;;3.37;;
505;SDS011;551;48.524;9.056;2022-09-03T05:44:17;6.47;;;3.70;;
505;SDS011;551;48.524;9.056;2022-09-03T05:46:45;3.30;;;3.10;;
505;SDS011;551;48.524;9.056;2022-09-03T05:49:11;5.97;;;3.93;;
505;SDS011;551;48.524;9.056;2022-09-03T05:51:37;9.57;;;4.57;;
505;SDS011;551;48.524;9.056;2022-09-03T05:54:04;4.07;;;3.77;;
505;SDS011;551;48.524;9.056;2022-09-03T05:56:32;4.10;;;3.30;;
505;SDS011;551;48.524;9.056;2022-09-03T05:59:00;3.57;;;3.27;;
505;SDS011;551;48.524;9.056;2022-09-03T06:01:27;4.73;;;3.40;;
505;SDS011;551;48.524;9.056;2022-09-03T06:03:58;3.33;;;3.13;;
505;SDS011;551;48.524;9.056;2022-09-03T06:06:25;3.77;;;3.40;;
505;SDS011;551;48.524;9.056;2022-09-03T06:08:55;4.03;;;3.70;;
505;SDS011;551;48.524;9.056;2022-09-03T06:11:22;3.60;;;3.30;;
505;SDS011;551;48.524;9.056;2022-09-03T06:13:52;4.40;;;4.00;;
505;SDS011;551;48.524;9.056;2022-09-03T06:16:18;5.30;;;3.63;;
505;SDS011;551;48.524;9.056;2022-09-03T06:18:45;4.40;;;4.00;;
505;SDS011;551;48.524;9.056;2022-09-03T06:21:11;5.30;;;3.60;;
505;SDS011;551;48.524;9.056;2022-09-03T06:23:38;3.33;;;3.13;;
505;SDS011;551;48.524;9.056;2022-09-03T06:26:08;4.53;;;4.20;;
505;SDS011;551;48.524;9.056;2022-09-03T06:28:35;6.57;;;3.67;;
505;SDS011;551;48.524;9.056;2022-09-03T06:31:02;3.70;;;3.40;;
505;SDS011;551;48.524;9.056;2022-09-03T06:33:28;4.27;;;3.70;;
505;SDS011;551;48.524;9.056;2022-09-03T06:35:58;5.30;;;3.43;;
505;SDS011;551;48.524;9.056;2022-09-03T06:38:25;4.80;;;4.03;;
505;SDS011;551;48.524;9.056;2022-09-03T06:40:55;5.97;;;3.33;;
505;SDS011;551;48.524;9.056;2022-09-03T06:43:22;3.90;;;3.60;;
505;SDS011;551;48.524;9.056;2022-09-03T06:46:22;4.40;;;4.00;;
505;SDS011;551;48.524;9.056;2022-09-03T06:48:40;3.73;;;3.03;;
505;SDS011;551;48.524;9.056;2022-09-03T06:51:07;5.10;;;4.27;;
505;SDS011;551;48.524;9.056;2022-09-03T06:53:35;10.50;;;6.60;;
505;SDS011;551;48.524;9.056;2022-09-03T06:56:02;4.67;;;3.93;;
505;SDS011;551;48.524;9.056;2022-09-03T06:58:29;3.80;;;3.50;;
505;SDS011;551;48.524;9.056;2022-09-03T07:01:02;4.80;;;4.30;;
505;SDS011;551;48.524;9.056;2022-09-03T07:03:30;6.10;;;3.63;;
505;SDS011;551;48.524;9.056;2022-09-03T07:06:00;6.00;;;3.33;;
505;SDS011;551;48.524;9.056;2022-09-03T07:08:26;6.20;;;4.20;;
505;SDS011;551;48.524;9.056;2022-09-03T07:10:52;4.03;;;3.50;;
505;SDS011;551;48.524;9.056;2022-09-03T07:13:17;3.90;;;3.60;;
505;SDS011;551;48.524;9.056;2022-09-03T07:15:44;6.87;;;3.77;;
505;SDS011;551;48.524;9.056;2022-09-03T07:18:09;3.90;;;3.33;;
505;SDS011;551;48.524;9.056;2022-09-03T07:20:35;3.60;;;3.30;;
505;SDS011;551;48.524;9.056;2022-09-03T07:23:01;4.57;;;3.30;;
505;SDS011;551;48.524;9.056;2022-09-03T07:25:27;3.53;;;3.33;;
505;SDS011;551;48.524;9.056;2022-09-03T07:27:54;6.53;;;3.50;;
505;SDS011;551;48.524;9.056;2022-09-03T07:30:21;4.03;;;3.63;;
505;SDS011;551;48.524;9.056;2022-09-03T07:32:47;7.13;;;3.50;;
505;SDS011;551;48.524;9.056;2022-09-03T07:35:15;3.60;;;3.20;;
505;SDS011;551;48.524;9.056;2022-09-03T07:37:42;12.30;;;7.00;;
505;SDS011;551;48.524;9.056;2022-09-03T07:40:08;4.20;;;3.80;;
505;SDS011;551;48.524;9.056;2022-09-03T07:42:35;4.03;;;3.60;;
505;SDS011;551;48.524;9.056;2022-09-03T07:45:03;4.23;;;3.60;;
505;SDS011;551;48.524;9.056;2022-09-03T07:47:30;4.03;;;3.63;;
505;SDS011;551;48.524;9.056;2022-09-03T07:49:56;3.73;;;3.23;;
505;SDS011;551;48.524;9.056;2022-09-03T07:52:22;3.23;;;3.03;;
505;SDS011;551;48.524;9.056;2022-09-03T07:54:48;3.30;;;3.03;;
505;SDS011;551;48.524;9.056;2022-09-03T07:57:14;4.73;;;3.33;;
505;SDS011;551;48.524;9.056;2022-09-03T07:59:40;4.03;;;3.27;;
505;SDS011;551;48.524;9.056;2022-09-03T08:02:06;3.90;;;3.60;;
505;SDS011;551;48.524;9.056;2022-09-03T08:04:32;3.63;;;3.37;;
505;SDS011;551;48.524;9.056;2022-09-03T08:07:00;4.10;;;3.67;;
505;SDS011;551;48.524;9.056;2022-09-03T08:09:26;3.60;;;3.13;;
505;SDS011;551;48.524;9.056;2022-09-03T08:11:51;4.30;;;3.90;;
505;SDS011;551;48.524;9.056;2022-09-03T08:14:17;3.73;;;3.43;;
505;SDS011;551;48.524;9.056;2022-09-03T08:16:44;3.70;;;3.43;;
505;SDS011;551;48.524;9.056;2022-09-03T08:19:13;3.70;;;3.50;;
505;SDS011;551;48.524;9.056;2022-09-03T08:21:39;3.73;;;3.53;;
505;SDS011;551;48.524;9.056;2022-09-03T08:24:06;3.83;;;3.63;;
505;SDS011;551;48.524;9.056;2022-09-03T08:26:33;3.50;;;3.30;;
505;SDS011;551;48.524;9.056;2022-09-03T08:28:59;3.93;;;3.40;;
505;SDS011;551;48.524;9.056;2022-09-03T08:31:25;3.70;;;3.43;;
505;SDS011;551;48.524;9.056;2022-09-03T08:33:53;4.07;;;3.77;;
505;SDS011;551;48.524;9.056;2022-09-03T08:36:20;3.80;;;3.50;;
505;SDS011;551;48.524;9.056;2022-09-03T08:38:47;3.97;;;3.57;;
505;SDS011;551;48.524;9.056;2022-09-03T08:41:19;4.13;;;3.73;;
505;SDS011;551;48.524;9.056;2022-09-03T08:43:53;3.30;;;3.00;;
505;SDS011;551;48.524;9.056;2022-09-03T08:46:25;3.57;;;3.37;;
505;SDS011;551;48.524;9.056;2022-09-03T08:48:56;3.97;;;3.67;;
505;SDS011;551;48.524;9.056;2022-09-03T08:51:23;3.43;;;3.23;;
505;SDS011;551;48.524;9.056;2022-09-03T08:53:51;4.07;;;3.77;;
505;SDS011;551;48.524;9.056;2022-09-03T08:56:23;3.57;;;3.27;;
505;SDS011;551;48.524;9.056;2022-09-03T08:58:51;3.70;;;3.40;;
505;SDS011;551;48.524;9.056;2022-09-03T09:03:56;4.93;;;3.27;;
505;SDS011;551;48.524;9.056;2022-09-03T09:09:03;3.50;;;3.30;;
505;SDS011;551;48.524;9.056;2022-09-03T09:14:03;3.93;;;3.60;;
505;SDS011;551;48.524;9.056;2022-09-03T09:21:49;3.03;;;2.93;;
505;SDS011;551;48.524;9.056;2022-09-03T09:24:18;3.80;;;3.50;;
505;SDS011;551;48.524;9.056;2022-09-03T09:26:47;3.10;;;2.90;;
505;SDS011;551;48.524;9.056;2022-09-03T09:29:13;3.10;;;3.00;;
505;SDS011;551;48.524;9.056;2022-09-03T09:31:40;4.70;;;3.30;;
505;SDS011;551;48.524;9.056;2022-09-03T09:34:09;3.63;;;3.30;;
505;SDS011;551;48.524;9.056;2022-09-03T09:36:45;3.20;;;2.97;;
505;SDS011;551;48.524;9.056;2022-09-03T09:39:13;3.80;;;3.50;;
505;SDS011;551;48.524;9.056;2022-09-03T09:41:42;3.33;;;3.13;;
505;SDS011;551;48.524;9.056;2022-09-03T09:44:16;3.07;;;2.93;;
505;SDS011;551;48.524;9.056;2022-09-03T09:46:43;3.20;;;3.00;;
505;SDS011;551;48.524;9.056;2022-09-03T09:52:06;2.90;;;2.70;;
505;SDS011;551;48.524;9.056;2022-09-03T09:54:35;3.30;;;3.10;;
505;SDS011;551;48.524;9.056;2022-09-03T09:57:02;3.50;;;3.30;;
505;SDS011;551;48.524;9.056;2022-09-03T09:59:30;3.53;;;3.33;;
505;SDS011;551;48.524;9.056;2022-09-03T10:02:08;3.30;;;3.10;;
505;SDS011;551;48.524;9.056;2022-09-03T10:04:35;3.53;;;3.23;;
505;SDS011;551;48.524;9.056;2022-09-03T10:07:21;4.07;;;3.30;;
505;SDS011;551;48.524;9.056;2022-09-03T10:10:04;3.20;;;3.00;;
505;SDS011;551;48.524;9.056;2022-09-03T10:12:39;3.83;;;3.63;;
505;SDS011;551;48.524;9.056;2022-09-03T10:20:14;4.03;;;3.67;;
505;SDS011;551;48.524;9.056;2022-09-03T10:22:55;4.57;;;4.17;;
505;SDS011;551;48.524;9.056;2022-09-03T10:25:22;4.33;;;3.93;;
505;SDS011;551;48.524;9.056;2022-09-03T10:27:50;4.40;;;4.00;;
505;SDS011;551;48.524;9.056;2022-09-03T10:30:18;4.67;;;4.23;;
505;SDS011;551;48.524;9.056;2022-09-03T10:32:59;4.20;;;3.90;;
505;SDS011;551;48.524;9.056;2022-09-03T10:35:33;4.17;;;3.77;;
505;SDS011;551;48.524;9.056;2022-09-03T10:40:34;4.27;;;3.83;;
505;SDS011;551;48.524;9.056;2022-09-03T10:43:20;4.30;;;3.90;;
505;SDS011;551;48.524;9.056;2022-09-03T10:51:18;3.63;;;3.33;;
505;SDS011;551;48.524;9.056;2022-09-03T10:56:41;3.77;;;3.47;;
505;SDS011;551;48.524;9.056;2022-09-03T11:02:00;3.70;;;3.40;;
505;SDS011;551;48.524;9.056;2022-09-03T11:04:51;4.30;;;3.90;;
505;SDS011;551;48.524;9.056;2022-09-03T11:07:20;4.23;;;3.50;;
505;SDS011;551;48.524;9.056;2022-09-03T11:09:56;12.03;;;4.50;;
505;SDS011;551;48.524;9.056;2022-09-03T11:12:32;6.37;;;3.50;;
505;SDS011;551;48.524;9.056;2022-09-03T11:17:46;6.10;;;3.40;;
505;SDS011;551;48.524;9.056;2022-09-03T11:20:20;3.83;;;3.40;;
505;SDS011;551;48.524;9.056;2022-09-03T11:22:47;4.10;;;3.70;;
505;SDS011;551;48.524;9.056;2022-09-03T11:25:16;4.73;;;4.23;;
505;SDS011;551;48.524;9.056;2022-09-03T11:27:48;5.20;;;4.30;;
505;SDS011;551;48.524;9.056;2022-09-03T11:30:25;4.30;;;3.90;;
505;SDS011;551;48.524;9.056;2022-09-03T11:32:55;4.63;;;4.20;;
505;SDS011;551;48.524;9.056;2022-09-03T11:37:53;4.60;;;4.30;;
505;SDS011;551;48.524;9.056;2022-09-03T11:40:27;3.73;;;2.87;;
505;SDS011;551;48.524;9.056;2022-09-03T11:43:03;4.27;;;2.87;;
505;SDS011;551;48.524;9.056;2022-09-03T11:45:34;3.00;;;2.23;;
505;SDS011;551;48.524;9.056;2022-09-03T11:48:01;4.13;;;2.10;;
505;SDS011;551;48.524;9.056;2022-09-03T11:50:31;2.30;;;2.10;;
505;SDS011;551;48.524;9.056;2022-09-03T11:53:07;7.13;;;2.60;;
505;SDS011;551;48.524;9.056;2022-09-03T11:58:25;8.10;;;2.00;;
505;SDS011;551;48.524;9.056;2022-09-03T12:00:54;3.83;;;2.30;;
505;SDS011;551;48.524;9.056;2022-09-03T12:06:11;1.90;;;1.80;;
505;SDS011;551;48.524;9.056;2022-09-03T12:08:46;1.83;;;1.73;;
505;SDS011;551;48.524;9.056;2022-09-03T12:16:55;2.80;;;2.00;;
505;SDS011;551;48.524;9.056;2022-09-03T12:19:38;1.77;;;1.40;;
505;SDS011;551;48.524;9.056;2022-09-03T12:22:06;3.87;;;2.43;;
505;SDS011;551;48.524;9.056;2022-09-03T12:24:32;6.87;;;3.43;;
505;SDS011;551;48.524;9.056;2022-09-03T12:27:01;7.87;;;1.90;;
505;SDS011;551;48.524;9.056;2022-09-03T12:29:28;2.00;;;1.77;;
505;SDS011;551;48.524;9.056;2022-09-03T12:31:55;2.53;;;2.10;;
505;SDS011;551;48.524;9.056;2022-09-03T12:34:22;2.70;;;2.10;;
505;SDS011;551;48.524;9.056;2022-09-03T12:36:50;3.50;;;2.13;;
505;SDS011;551;48.524;9.056;2022-09-03T12:39:20;1.60;;;1.50;;
505;SDS011;551;48.524;9.056;2022-09-03T12:44:18;2.43;;;2.10;;
505;SDS011;551;48.524;9.056;2022-09-03T12:46:58;1.83;;;1.73;;
505;SDS011;551;48.524;9.056;2022-09-03T12:49:25;3.50;;;2.00;;
505;SDS011;551;48.524;9.056;2022-09-03T12:51:56;3.47;;;1.73;;
505;SDS011;551;48.524;9.056;2022-09-03T12:54:23;2.20;;;1.63;;
505;SDS011;551;48.524;9.056;2022-09-03T12:56:54;1.90;;;1.80;;
505;SDS011;551;48.524;9.056;2022-09-03T12:59:21;2.90;;;1.60;;
505;SDS011;551;48.524;9.056;2022-09-03T13:01:49;2.10;;;1.90;;
505;SDS011;551;48.524;9.056;2022-09-03T13:04:17;2.70;;;1.63;;
505;SDS011;551;48.524;9.056;2022-09-03T13:06:50;3.60;;;1.73;;
505;SDS011;551;48.524;9.056;2022-09-03T13:09:21;2.40;;;1.43;;
505;SDS011;551;48.524;9.056;2022-09-03T13:11:48;4.00;;;1.73;;
505;SDS011;551;48.524;9.056;2022-09-03T13:14:17;2.00;;;1.80;;
505;SDS011;551;48.524;9.056;2022-09-03T13:27:32;2.23;;;1.40;;
505;SDS011;551;48.524;9.056;2022-09-03T13:32:33;1.73;;;1.63;;
505;SDS011;551;48.524;9.056;2022-09-03T13:35:12;2.50;;;1.60;;
505;SDS011;551;48.524;9.056;2022-09-03T13:37:44;1.70;;;1.60;;
505;SDS011;551;48.524;9.056;2022-09-03T13:42:40;1.70;;;1.60;;
505;SDS011;551;48.524;9.056;2022-09-03T13:47:55;1.70;;;1.60;;
505;SDS011;551;48.524;9.056;2022-09-03T13:50:44;2.00;;;1.80;;
505;SDS011;551;48.524;9.056;2022-09-03T13:55:43;1.70;;;1.60;;
505;SDS011;551;48.524;9.056;2022-09-03T14:00:53;2.33;;;2.00;;
505;SDS011;551;48.524;9.056;2022-09-03T14:09:13;2.30;;;2.13;;
505;SDS011;551;48.524;9.056;2022-09-03T14:11:45;1.90;;;1.80;;
505;SDS011;551;48.524;9.056;2022-09-03T14:14:27;1.70;;;1.60;;
505;SDS011;551;48.524;9.056;2022-09-03T14:16:55;2.00;;;1.67;;
505;SDS011;551;48.524;9.056;2022-09-03T14:19:28;3.03;;;1.90;;
505;SDS011;551;48.524;9.056;2022-09-03T14:21:59;2.00;;;1.90;;
505;SDS011;551;48.524;9.056;2022-09-03T14:27:10;1.40;;;1.30;;
505;SDS011;551;48.524;9.056;2022-09-03T14:29:36;4.33;;;1.80;;
505;SDS011;551;48.524;9.056;2022-09-03T14:45:11;1.63;;;1.53;;
505;SDS011;551;48.524;9.056;2022-09-03T15:03:14;1.53;;;1.43;;
505;SDS011;551;48.524;9.056;2022-09-03T15:10:52;1.40;;;1.30;;
505;SDS011;551;48.524;9.056;2022-09-03T15:15:54;1.50;;;1.40;;
505;SDS011;551;48.524;9.056;2022-09-03T15:18:37;1.60;;;1.50;;
505;SDS011;551;48.524;9.056;2022-09-03T15:24:00;2.70;;;1.50;;
505;SDS011;551;48.524;9.056;2022-09-03T15:29:36;1.83;;;1.73;;
505;SDS011;551;48.524;9.056;2022-09-03T15:32:09;2.60;;;1.47;;
505;SDS011;551;48.524;9.056;2022-09-03T15:40:02;1.63;;;1.53;;
505;SDS011;551;48.524;9.056;2022-09-03T15:42:30;1.50;;;1.40;;
505;SDS011;551;48.524;9.056;2022-09-03T15:45:06;1.70;;;1.60;;
505;SDS011;551;48.524;9.056;2022-09-03T15:47:47;2.20;;;1.53;;
505;SDS011;551;48.524;9.056;2022-09-03T15:57:56;1.90;;;1.80;;
505;SDS011;551;48.524;9.056;2022-09-03T16:00:33;2.37;;;2.13;;
505;SDS011;551;48.524;9.056;2022-09-03T16:03:07;1.87;;;1.73;;
505;SDS011;551;48.524;9.056;2022-09-03T16:05:39;2.43;;;2.23;;
505;SDS011;551;48.524;9.056;2022-09-03T16:08:09;2.27;;;2.07;;
505;SDS011;551;48.524;9.056;2022-09-03T16:10:44;2.03;;;1.93;;
505;SDS011;551;48.524;9.056;2022-09-03T16:18:45;2.60;;;2.33;;
505;SDS011;551;48.524;9.056;2022-09-03T16:21:21;1.97;;;1.87;;
505;SDS011;551;48.524;9.056;2022-09-03T16:23:54;2.10;;;1.93;;
505;SDS011;551;48.524;9.056;2022-09-03T16:29:13;2.37;;;2.10;;
505;SDS011;551;48.524;9.056;2022-09-03T16:36:56;2.63;;;2.10;;
505;SDS011;551;48.524;9.056;2022-09-03T16:39:27;2.23;;;2.13;;
505;SDS011;551;48.524;9.056;2022-09-03T16:44:45;2.27;;;2.07;;
505;SDS011;551;48.524;9.056;2022-09-03T16:47:22;2.30;;;1.70;;
505;SDS011;551;48.524;9.056;2022-09-03T16:49:58;1.93;;;1.73;;
505;SDS011;551;48.524;9.056;2022-09-03T17:00:12;2.70;;;2.33;;
505;SDS011;551;48.524;9.056;2022-09-03T17:10:45;1.97;;;1.87;;
505;SDS011;551;48.524;9.056;2022-09-03T17:18:21;2.03;;;1.93;;
505;SDS011;551;48.524;9.056;2022-09-03T17:20:54;2.43;;;2.13;;
505;SDS011;551;48.524;9.056;2022-09-03T17:23:27;2.07;;;1.97;;
505;SDS011;551;48.524;9.056;2022-09-03T17:25:57;2.00;;;1.90;;
505;SDS011;551;48.524;9.056;2022-09-03T17:33:49;2.60;;;2.40;;
505;SDS011;551;48.524;9.056;2022-09-03T17:36:23;2.40;;;2.20;;
505;SDS011;551;48.524;9.056;2022-09-03T17:41:33;2.30;;;2.10;;
505;SDS011;551;48.524;9.056;2022-09-03T17:56:53;2.10;;;1.90;;
505;SDS011;551;48.524;9.056;2022-09-03T17:59:28;2.57;;;1.87;;
505;SDS011;551;48.524;9.056;2022-09-03T18:04:48;2.50;;;2.30;;
505;SDS011;551;48.524;9.056;2022-09-03T18:07:20;2.77;;;2.57;;
505;SDS011;551;48.524;9.056;2022-09-03T18:09:53;4.70;;;2.90;;
505;SDS011;551;48.524;9.056;2022-09-03T18:15:11;3.53;;;2.43;;
505;SDS011;551;48.524;9.056;2022-09-03T18:17:40;2.57;;;2.27;;
505;SDS011;551;48.524;9.056;2022-09-03T18:20:08;3.00;;;2.70;;
505;SDS011;551;48.524;9.056;2022-09-03T18:25:38;7.90;;;2.70;;
505;SDS011;551;48.524;9.056;2022-09-03T18:28:26;2.50;;;2.30;;
505;SDS011;551;48.524;9.056;2022-09-03T18:31:13;3.07;;;2.50;;
505;SDS011;551;48.524;9.056;2022-09-03T18:33:58;3.40;;;2.33;;
505;SDS011;551;48.524;9.056;2022-09-03T18:36:43;4.10;;;2.23;;
505;SDS011;551;48.524;9.056;2022-09-03T18:39:27;6.47;;;2.70;;
505;SDS011;551;48.524;9.056;2022-09-03T18:47:51;2.50;;;2.30;;
505;SDS011;551;48.524;9.056;2022-09-03T18:56:49;4.13;;;2.60;;
505;SDS011;551;48.524;9.056;2022-09-03T19:05:18;3.70;;;2.50;;
505;SDS011;551;48.524;9.056;2022-09-03T19:14:31;4.83;;;2.73;;
505;SDS011;551;48.524;9.056;2022-09-03T19:17:22;3.73;;;3.23;;
505;SDS011;551;48.524;9.056;2022-09-03T19:20:27;3.60;;;3.30;;
505;SDS011;551;48.524;9.056;2022-09-03T19:23:13;6.30;;;2.90;;
505;SDS011;551;48.524;9.056;2022-09-03T19:26:04;4.67;;;3.63;;
505;SDS011;551;48.524;9.056;2022-09-03T19:28:51;3.13;;;2.83;;
505;SDS011;551;48.524;9.056;2022-09-03T19:31:44;2.90;;;2.70;;
505;SDS011;551;48.524;9.056;2022-09-03T19:37:36;10.47;;;3.07;;
505;SDS011;551;48.524;9.056;2022-09-03T19:40:39;3.80;;;3.40;;
505;SDS011;551;48.524;9.056;2022-09-03T19:43:35;5.50;;;3.20;;
505;SDS011;551;48.524;9.056;2022-09-03T19:46:38;3.30;;;2.87;;
505;SDS011;551;48.524;9.056;2022-09-03T19:55:11;4.00;;;2.53;;
505;SDS011;551;48.524;9.056;2022-09-03T19:57:58;2.60;;;2.40;;
505;SDS011;551;48.524;9.056;2022-09-03T20:00:44;2.70;;;2.47;;
505;SDS011;551;48.524;9.056;2022-09-03T20:03:29;2.50;;;2.30;;
505;SDS011;551;48.524;9.056;2022-09-03T20:06:13;1.87;;;1.77;;
505;SDS011;551;48.524;9.056;2022-09-03T20:08:59;4.50;;;2.23;;
505;SDS011;551;48.524;9.056;2022-09-03T20:11:46;3.00;;;2.30;;
505;SDS011;551;48.524;9.056;2022-09-03T20:14:13;2.43;;;2.20;;
505;SDS011;551;48.524;9.056;2022-09-03T20:16:42;3.60;;;2.70;;
505;SDS011;551;48.524;9.056;2022-09-03T20:21:41;3.10;;;2.47;;
505;SDS011;551;48.524;9.056;2022-09-03T20:24:31;2.83;;;2.50;;
505;SDS011;551;48.524;9.056;2022-09-03T20:29:45;2.37;;;2.20;;
505;SDS011;551;48.524;9.056;2022-09-03T20:37:27;6.27;;;2.63;;
505;SDS011;551;48.524;9.056;2022-09-03T20:55:35;3.33;;;2.50;;
505;SDS011;551;48.524;9.056;2022-09-03T20:58:19;3.40;;;2.50;;
505;SDS011;551;48.524;9.056;2022-09-03T21:03:18;4.30;;;2.40;;
505;SDS011;551;48.524;9.056;2022-09-03T21:05:50;3.03;;;2.73;;
505;SDS011;551;48.524;9.056;2022-09-03T21:08:34;2.70;;;2.33;;
505;SDS011;551;48.524;9.056;2022-09-03T21:11:29;2.43;;;2.23;;
505;SDS011;551;48.524;9.056;2022-09-03T21:18:56;3.33;;;2.20;;
505;SDS011;551;48.524;9.056;2022-09-03T21:24:20;2.80;;;2.40;;
505;SDS011;551;48.524;9.056;2022-09-03T21:26:47;2.70;;;2.50;;
505;SDS011;551;48.524;9.056;2022-09-03T21:32:11;4.03;;;2.47;;
505;SDS011;551;48.524;9.056;2022-09-03T21:37:05;4.63;;;3.30;;